sensor_id;sensor_type;location;lat;lon;timestamp;P1;durP1;ratioP1;P2;durP2;ratioP2
56319;SDS011;42226;42.382;23.748;2024-03-22T00:00:25;11.55;;;8.35;;
56319;SDS011;42226;42.382;23.748;2024-03-22T00:02:53;9.13;;;8.23;;
56319;SDS011;42226;42.382;23.748;2024-03-22T00:05:19;10.25;;;8.65;;
56319;SDS011;42226;42.382;23.748;2024-03-22T00:07:48;9.05;;;8.07;;
56319;SDS011;42226;42.382;23.748;2024-03-22T00:10:15;10.73;;;9.57;;
56319;SDS011;42226;42.382;23.748;2024-03-22T00:12:43;11.20;;;9.35;;
56319;SDS011;42226;42.382;23.748;2024-03-22T00:15:10;10.70;;;9.13;;
56319;SDS011;42226;42.382;23.748;2024-03-22T00:17:38;10.00;;;8.65;;
56319;SDS011;42226;42.382;23.748;2024-03-22T00:20:12;8.77;;;7.97;;
56319;SDS011;42226;42.382;23.748;2024-03-22T00:22:39;8.82;;;7.82;;
56319;SDS011;42226;42.382;23.748;2024-03-22T00:25:07;11.98;;;8.20;;
56319;SDS011;42226;42.382;23.748;2024-03-22T00:27:34;9.25;;;8.27;;
56319;SDS011;42226;42.382;23.748;2024-03-22T00:30:02;9.18;;;8.27;;
56319;SDS011;42226;42.382;23.748;2024-03-22T00:32:29;11.63;;;9.15;;
56319;SDS011;42226;42.382;23.748;2024-03-22T00:34:57;9.73;;;8.30;;
56319;SDS011;42226;42.382;23.748;2024-03-22T00:37:24;9.35;;;8.45;;
56319;SDS011;42226;42.382;23.748;2024-03-22T00:39:52;9.23;;;8.32;;
56319;SDS011;42226;42.382;23.748;2024-03-22T00:42:18;11.90;;;8.98;;
56319;SDS011;42226;42.382;23.748;2024-03-22T00:44:46;9.75;;;8.35;;
56319;SDS011;42226;42.382;23.748;2024-03-22T00:47:14;8.77;;;7.90;;
56319;SDS011;42226;42.382;23.748;2024-03-22T00:49:43;9.18;;;8.30;;
56319;SDS011;42226;42.382;23.748;2024-03-22T00:52:11;9.48;;;8.32;;
56319;SDS011;42226;42.382;23.748;2024-03-22T00:54:37;8.65;;;7.72;;
56319;SDS011;42226;42.382;23.748;2024-03-22T00:57:06;9.27;;;8.38;;
56319;SDS011;42226;42.382;23.748;2024-03-22T00:59:32;9.25;;;8.27;;
56319;SDS011;42226;42.382;23.748;2024-03-22T01:02:00;9.63;;;8.63;;
56319;SDS011;42226;42.382;23.748;2024-03-22T01:04:27;10.38;;;7.65;;
56319;SDS011;42226;42.382;23.748;2024-03-22T01:06:55;8.85;;;7.95;;
56319;SDS011;42226;42.382;23.748;2024-03-22T01:09:22;9.25;;;8.35;;
56319;SDS011;42226;42.382;23.748;2024-03-22T01:11:50;9.45;;;8.20;;
56319;SDS011;42226;42.382;23.748;2024-03-22T01:14:17;9.63;;;8.30;;
56319;SDS011;42226;42.382;23.748;2024-03-22T01:16:45;11.07;;;8.70;;
56319;SDS011;42226;42.382;23.748;2024-03-22T01:19:23;10.43;;;8.95;;
56319;SDS011;42226;42.382;23.748;2024-03-22T01:21:51;11.23;;;9.05;;
56319;SDS011;42226;42.382;23.748;2024-03-22T01:24:19;10.63;;;9.02;;
56319;SDS011;42226;42.382;23.748;2024-03-22T01:26:46;10.70;;;8.93;;
56319;SDS011;42226;42.382;23.748;2024-03-22T01:29:13;10.43;;;9.43;;
56319;SDS011;42226;42.382;23.748;2024-03-22T01:31:40;10.20;;;9.02;;
56319;SDS011;42226;42.382;23.748;2024-03-22T01:34:08;11.65;;;9.60;;
56319;SDS011;42226;42.382;23.748;2024-03-22T01:36:34;10.43;;;9.32;;
56319;SDS011;42226;42.382;23.748;2024-03-22T01:39:02;10.40;;;9.20;;
56319;SDS011;42226;42.382;23.748;2024-03-22T01:41:29;10.25;;;9.05;;
56319;SDS011;42226;42.382;23.748;2024-03-22T01:43:57;11.98;;;9.98;;
56319;SDS011;42226;42.382;23.748;2024-03-22T01:46:25;10.65;;;9.55;;
56319;SDS011;42226;42.382;23.748;2024-03-22T01:48:52;11.98;;;10.05;;
56319;SDS011;42226;42.382;23.748;2024-03-22T01:51:19;11.82;;;10.63;;
56319;SDS011;42226;42.382;23.748;2024-03-22T01:53:45;13.45;;;10.93;;
56319;SDS011;42226;42.382;23.748;2024-03-22T01:56:13;13.07;;;11.35;;
56319;SDS011;42226;42.382;23.748;2024-03-22T01:58:41;11.35;;;9.93;;
56319;SDS011;42226;42.382;23.748;2024-03-22T02:01:09;11.68;;;10.38;;
56319;SDS011;42226;42.382;23.748;2024-03-22T02:03:35;10.35;;;9.27;;
56319;SDS011;42226;42.382;23.748;2024-03-22T02:06:03;10.25;;;9.25;;
56319;SDS011;42226;42.382;23.748;2024-03-22T02:08:31;11.02;;;8.98;;
56319;SDS011;42226;42.382;23.748;2024-03-22T02:10:58;11.77;;;9.98;;
56319;SDS011;42226;42.382;23.748;2024-03-22T02:13:26;10.70;;;8.77;;
56319;SDS011;42226;42.382;23.748;2024-03-22T02:15:53;11.10;;;9.10;;
56319;SDS011;42226;42.382;23.748;2024-03-22T02:18:22;9.93;;;8.93;;
56319;SDS011;42226;42.382;23.748;2024-03-22T02:20:48;11.98;;;10.77;;
56319;SDS011;42226;42.382;23.748;2024-03-22T02:23:16;12.68;;;10.38;;
56319;SDS011;42226;42.382;23.748;2024-03-22T02:25:42;11.55;;;9.80;;
56319;SDS011;42226;42.382;23.748;2024-03-22T02:28:10;9.68;;;8.68;;
56319;SDS011;42226;42.382;23.748;2024-03-22T02:30:36;12.73;;;9.55;;
56319;SDS011;42226;42.382;23.748;2024-03-22T02:33:04;11.55;;;9.65;;
56319;SDS011;42226;42.382;23.748;2024-03-22T02:38:36;10.35;;;9.35;;
56319;SDS011;42226;42.382;23.748;2024-03-22T02:41:03;10.57;;;7.55;;
56319;SDS011;42226;42.382;23.748;2024-03-22T02:43:31;8.80;;;7.90;;
56319;SDS011;42226;42.382;23.748;2024-03-22T02:45:58;9.07;;;7.60;;
56319;SDS011;42226;42.382;23.748;2024-03-22T02:48:25;8.98;;;8.07;;
56319;SDS011;42226;42.382;23.748;2024-03-22T02:50:55;9.07;;;8.05;;
56319;SDS011;42226;42.382;23.748;2024-03-22T02:53:22;8.40;;;7.60;;
56319;SDS011;42226;42.382;23.748;2024-03-22T02:55:48;10.05;;;7.88;;
56319;SDS011;42226;42.382;23.748;2024-03-22T02:58:16;9.40;;;8.57;;
56319;SDS011;42226;42.382;23.748;2024-03-22T03:04:24;9.20;;;8.07;;
56319;SDS011;42226;42.382;23.748;2024-03-22T03:06:43;9.82;;;8.32;;
56319;SDS011;42226;42.382;23.748;2024-03-22T03:09:11;16.42;;;10.32;;
56319;SDS011;42226;42.382;23.748;2024-03-22T03:11:39;34.40;;;15.43;;
56319;SDS011;42226;42.382;23.748;2024-03-22T03:14:07;32.13;;;16.05;;
56319;SDS011;42226;42.382;23.748;2024-03-22T03:16:35;34.70;;;16.23;;
56319;SDS011;42226;42.382;23.748;2024-03-22T03:19:02;33.05;;;15.85;;
56319;SDS011;42226;42.382;23.748;2024-03-22T03:21:29;24.38;;;16.55;;
56319;SDS011;42226;42.382;23.748;2024-03-22T03:23:56;17.00;;;12.40;;
56319;SDS011;42226;42.382;23.748;2024-03-22T03:26:24;19.08;;;12.07;;
56319;SDS011;42226;42.382;23.748;2024-03-22T03:28:52;15.43;;;10.52;;
56319;SDS011;42226;42.382;23.748;2024-03-22T03:31:21;13.30;;;9.40;;
56319;SDS011;42226;42.382;23.748;2024-03-22T03:33:48;10.27;;;8.43;;
56319;SDS011;42226;42.382;23.748;2024-03-22T03:36:15;9.93;;;8.93;;
56319;SDS011;42226;42.382;23.748;2024-03-22T03:38:43;10.20;;;8.55;;
56319;SDS011;42226;42.382;23.748;2024-03-22T03:41:11;10.93;;;8.95;;
56319;SDS011;42226;42.382;23.748;2024-03-22T03:43:39;11.85;;;8.63;;
56319;SDS011;42226;42.382;23.748;2024-03-22T03:46:06;9.48;;;8.40;;
56319;SDS011;42226;42.382;23.748;2024-03-22T03:48:33;12.85;;;9.27;;
56319;SDS011;42226;42.382;23.748;2024-03-22T03:51:00;9.13;;;7.78;;
56319;SDS011;42226;42.382;23.748;2024-03-22T03:53:29;10.20;;;9.05;;
56319;SDS011;42226;42.382;23.748;2024-03-22T03:55:56;9.75;;;8.48;;
56319;SDS011;42226;42.382;23.748;2024-03-22T03:58:24;10.77;;;8.18;;
56319;SDS011;42226;42.382;23.748;2024-03-22T04:00:50;10.05;;;8.20;;
56319;SDS011;42226;42.382;23.748;2024-03-22T04:03:18;9.40;;;8.48;;
56319;SDS011;42226;42.382;23.748;2024-03-22T04:05:46;10.23;;;8.70;;
56319;SDS011;42226;42.382;23.748;2024-03-22T04:08:27;9.95;;;8.85;;
56319;SDS011;42226;42.382;23.748;2024-03-22T04:10:56;9.98;;;8.93;;
56319;SDS011;42226;42.382;23.748;2024-03-22T04:13:27;10.45;;;8.93;;
56319;SDS011;42226;42.382;23.748;2024-03-22T04:15:54;9.43;;;8.43;;
56319;SDS011;42226;42.382;23.748;2024-03-22T04:18:24;10.45;;;8.52;;
56319;SDS011;42226;42.382;23.748;2024-03-22T04:20:57;9.65;;;8.45;;
56319;SDS011;42226;42.382;23.748;2024-03-22T04:23:26;8.90;;;7.97;;
56319;SDS011;42226;42.382;23.748;2024-03-22T04:25:56;9.32;;;8.38;;
56319;SDS011;42226;42.382;23.748;2024-03-22T04:28:25;8.93;;;8.00;;
56319;SDS011;42226;42.382;23.748;2024-03-22T04:31:00;10.88;;;8.55;;
56319;SDS011;42226;42.382;23.748;2024-03-22T04:33:32;10.02;;;9.07;;
56319;SDS011;42226;42.382;23.748;2024-03-22T04:35:59;9.52;;;8.20;;
56319;SDS011;42226;42.382;23.748;2024-03-22T04:38:28;10.35;;;7.65;;
56319;SDS011;42226;42.382;23.748;2024-03-22T04:40:55;10.60;;;8.98;;
56319;SDS011;42226;42.382;23.748;2024-03-22T04:43:23;9.68;;;8.68;;
56319;SDS011;42226;42.382;23.748;2024-03-22T04:45:51;10.75;;;8.30;;
56319;SDS011;42226;42.382;23.748;2024-03-22T04:48:19;11.48;;;10.27;;
56319;SDS011;42226;42.382;23.748;2024-03-22T04:50:49;9.38;;;8.55;;
56319;SDS011;42226;42.382;23.748;2024-03-22T04:53:17;10.50;;;7.95;;
56319;SDS011;42226;42.382;23.748;2024-03-22T04:55:50;10.45;;;9.43;;
56319;SDS011;42226;42.382;23.748;2024-03-22T04:58:18;12.00;;;9.80;;
56319;SDS011;42226;42.382;23.748;2024-03-22T05:00:47;9.18;;;8.27;;
56319;SDS011;42226;42.382;23.748;2024-03-22T05:03:15;10.02;;;9.02;;
56319;SDS011;42226;42.382;23.748;2024-03-22T05:05:43;9.55;;;8.45;;
56319;SDS011;42226;42.382;23.748;2024-03-22T05:08:09;10.38;;;8.52;;
56319;SDS011;42226;42.382;23.748;2024-03-22T05:10:37;9.30;;;8.35;;
56319;SDS011;42226;42.382;23.748;2024-03-22T05:13:03;9.20;;;8.30;;
56319;SDS011;42226;42.382;23.748;2024-03-22T05:15:31;8.68;;;7.88;;
56319;SDS011;42226;42.382;23.748;2024-03-22T05:17:59;9.07;;;8.18;;
56319;SDS011;42226;42.382;23.748;2024-03-22T05:20:27;8.70;;;7.82;;
56319;SDS011;42226;42.382;23.748;2024-03-22T05:22:54;9.13;;;8.10;;
56319;SDS011;42226;42.382;23.748;2024-03-22T05:25:21;8.68;;;7.78;;
56319;SDS011;42226;42.382;23.748;2024-03-22T05:27:48;8.90;;;7.38;;
56319;SDS011;42226;42.382;23.748;2024-03-22T05:30:14;8.52;;;7.60;;
56319;SDS011;42226;42.382;23.748;2024-03-22T05:32:42;8.65;;;7.75;;
56319;SDS011;42226;42.382;23.748;2024-03-22T05:35:09;10.63;;;8.25;;
56319;SDS011;42226;42.382;23.748;2024-03-22T05:37:36;12.63;;;9.52;;
56319;SDS011;42226;42.382;23.748;2024-03-22T05:40:04;10.40;;;7.70;;
56319;SDS011;42226;42.382;23.748;2024-03-22T05:42:33;9.27;;;7.82;;
56319;SDS011;42226;42.382;23.748;2024-03-22T05:45:00;9.05;;;8.15;;
56319;SDS011;42226;42.382;23.748;2024-03-22T05:50:13;8.40;;;7.47;;
56319;SDS011;42226;42.382;23.748;2024-03-22T05:52:40;8.88;;;7.97;;
56319;SDS011;42226;42.382;23.748;2024-03-22T05:55:07;8.27;;;7.55;;
56319;SDS011;42226;42.382;23.748;2024-03-22T05:57:35;7.60;;;7.00;;
56319;SDS011;42226;42.382;23.748;2024-03-22T06:00:04;9.02;;;8.10;;
56319;SDS011;42226;42.382;23.748;2024-03-22T06:02:33;8.45;;;7.65;;
56319;SDS011;42226;42.382;23.748;2024-03-22T06:05:01;8.95;;;8.10;;
56319;SDS011;42226;42.382;23.748;2024-03-22T06:07:29;8.38;;;7.57;;
56319;SDS011;42226;42.382;23.748;2024-03-22T06:10:04;7.60;;;6.97;;
56319;SDS011;42226;42.382;23.748;2024-03-22T06:12:33;8.13;;;7.43;;
56319;SDS011;42226;42.382;23.748;2024-03-22T06:15:00;8.38;;;7.50;;
56319;SDS011;42226;42.382;23.748;2024-03-22T06:17:31;7.63;;;6.90;;
56319;SDS011;42226;42.382;23.748;2024-03-22T06:20:00;8.32;;;7.50;;
56319;SDS011;42226;42.382;23.748;2024-03-22T06:22:28;8.63;;;7.63;;
56319;SDS011;42226;42.382;23.748;2024-03-22T06:24:56;8.18;;;7.40;;
56319;SDS011;42226;42.382;23.748;2024-03-22T06:27:22;8.23;;;7.43;;
56319;SDS011;42226;42.382;23.748;2024-03-22T06:29:50;7.75;;;7.05;;
56319;SDS011;42226;42.382;23.748;2024-03-22T06:32:17;7.35;;;6.75;;
56319;SDS011;42226;42.382;23.748;2024-03-22T06:34:50;7.47;;;6.88;;
56319;SDS011;42226;42.382;23.748;2024-03-22T06:37:16;8.00;;;7.30;;
56319;SDS011;42226;42.382;23.748;2024-03-22T06:39:45;7.72;;;7.07;;
56319;SDS011;42226;42.382;23.748;2024-03-22T06:42:13;7.40;;;6.80;;
56319;SDS011;42226;42.382;23.748;2024-03-22T06:44:47;7.93;;;7.22;;
56319;SDS011;42226;42.382;23.748;2024-03-22T06:47:13;8.20;;;7.50;;
56319;SDS011;42226;42.382;23.748;2024-03-22T06:49:40;7.75;;;7.05;;
56319;SDS011;42226;42.382;23.748;2024-03-22T06:55:07;8.35;;;7.65;;
56319;SDS011;42226;42.382;23.748;2024-03-22T06:57:45;8.25;;;6.65;;
56319;SDS011;42226;42.382;23.748;2024-03-22T07:00:16;7.82;;;7.13;;
56319;SDS011;42226;42.382;23.748;2024-03-22T07:02:43;8.50;;;7.90;;
56319;SDS011;42226;42.382;23.748;2024-03-22T07:05:10;7.32;;;6.70;;
56319;SDS011;42226;42.382;23.748;2024-03-22T07:10:10;8.15;;;7.32;;
56319;SDS011;42226;42.382;23.748;2024-03-22T07:12:36;7.82;;;7.13;;
56319;SDS011;42226;42.382;23.748;2024-03-22T07:15:06;7.85;;;7.15;;
56319;SDS011;42226;42.382;23.748;2024-03-22T07:17:33;7.65;;;7.05;;
56319;SDS011;42226;42.382;23.748;2024-03-22T07:20:00;8.20;;;7.60;;
56319;SDS011;42226;42.382;23.748;2024-03-22T07:22:27;8.50;;;7.47;;
56319;SDS011;42226;42.382;23.748;2024-03-22T07:24:54;7.68;;;7.07;;
56319;SDS011;42226;42.382;23.748;2024-03-22T07:27:21;7.75;;;7.05;;
56319;SDS011;42226;42.382;23.748;2024-03-22T07:29:49;8.20;;;7.60;;
56319;SDS011;42226;42.382;23.748;2024-03-22T07:32:16;9.20;;;8.40;;
56319;SDS011;42226;42.382;23.748;2024-03-22T07:34:45;8.48;;;7.63;;
56319;SDS011;42226;42.382;23.748;2024-03-22T07:37:13;7.97;;;7.28;;
56319;SDS011;42226;42.382;23.748;2024-03-22T07:39:40;7.95;;;7.32;;
56319;SDS011;42226;42.382;23.748;2024-03-22T07:42:10;7.97;;;7.38;;
56319;SDS011;42226;42.382;23.748;2024-03-22T07:47:31;8.43;;;7.75;;
56319;SDS011;42226;42.382;23.748;2024-03-22T07:49:58;8.15;;;7.38;;
56319;SDS011;42226;42.382;23.748;2024-03-22T07:52:26;8.40;;;7.70;;
56319;SDS011;42226;42.382;23.748;2024-03-22T07:54:53;8.13;;;7.53;;
56319;SDS011;42226;42.382;23.748;2024-03-22T07:57:22;8.45;;;7.75;;
56319;SDS011;42226;42.382;23.748;2024-03-22T07:59:50;8.68;;;8.02;;
56319;SDS011;42226;42.382;23.748;2024-03-22T08:05:12;8.35;;;7.75;;
56319;SDS011;42226;42.382;23.748;2024-03-22T08:07:38;7.35;;;6.65;;
56319;SDS011;42226;42.382;23.748;2024-03-22T08:10:07;8.50;;;7.80;;
56319;SDS011;42226;42.382;23.748;2024-03-22T08:12:34;7.97;;;7.28;;
56319;SDS011;42226;42.382;23.748;2024-03-22T08:15:01;7.63;;;7.03;;
56319;SDS011;42226;42.382;23.748;2024-03-22T08:17:30;7.38;;;6.68;;
56319;SDS011;42226;42.382;23.748;2024-03-22T08:23:10;7.72;;;7.15;;
56319;SDS011;42226;42.382;23.748;2024-03-22T08:25:36;8.07;;;7.43;;
56319;SDS011;42226;42.382;23.748;2024-03-22T08:28:07;8.18;;;7.57;;
56319;SDS011;42226;42.382;23.748;2024-03-22T08:30:36;7.53;;;6.82;;
56319;SDS011;42226;42.382;23.748;2024-03-22T08:36:02;7.45;;;6.80;;
56319;SDS011;42226;42.382;23.748;2024-03-22T08:38:30;7.13;;;6.63;;
56319;SDS011;42226;42.382;23.748;2024-03-22T08:40:57;6.60;;;6.10;;
56319;SDS011;42226;42.382;23.748;2024-03-22T08:46:33;7.53;;;6.93;;
56319;SDS011;42226;42.382;23.748;2024-03-22T08:49:01;7.75;;;7.15;;
56319;SDS011;42226;42.382;23.748;2024-03-22T08:51:28;7.68;;;7.07;;
56319;SDS011;42226;42.382;23.748;2024-03-22T08:53:56;7.25;;;6.65;;
56319;SDS011;42226;42.382;23.748;2024-03-22T08:56:31;7.50;;;6.80;;
56319;SDS011;42226;42.382;23.748;2024-03-22T09:01:51;7.60;;;6.55;;
56319;SDS011;42226;42.382;23.748;2024-03-22T09:04:17;6.65;;;6.07;;
56319;SDS011;42226;42.382;23.748;2024-03-22T09:06:45;6.85;;;6.35;;
56319;SDS011;42226;42.382;23.748;2024-03-22T09:09:12;6.75;;;6.25;;
56319;SDS011;42226;42.382;23.748;2024-03-22T09:11:39;6.60;;;6.10;;
56319;SDS011;42226;42.382;23.748;2024-03-22T09:16:58;7.00;;;6.50;;
56319;SDS011;42226;42.382;23.748;2024-03-22T09:19:26;6.63;;;6.03;;
56319;SDS011;42226;42.382;23.748;2024-03-22T09:21:53;6.47;;;6.00;;
56319;SDS011;42226;42.382;23.748;2024-03-22T09:24:20;6.10;;;5.70;;
56319;SDS011;42226;42.382;23.748;2024-03-22T09:26:46;6.15;;;5.65;;
56319;SDS011;42226;42.382;23.748;2024-03-22T09:29:14;6.07;;;5.60;;
56319;SDS011;42226;42.382;23.748;2024-03-22T09:31:42;6.20;;;5.80;;
56319;SDS011;42226;42.382;23.748;2024-03-22T09:34:08;6.65;;;6.15;;
56319;SDS011;42226;42.382;23.748;2024-03-22T09:36:38;6.53;;;6.00;;
56319;SDS011;42226;42.382;23.748;2024-03-22T09:39:07;6.03;;;5.55;;
56319;SDS011;42226;42.382;23.748;2024-03-22T09:41:33;6.05;;;5.65;;
56319;SDS011;42226;42.382;23.748;2024-03-22T09:44:13;6.70;;;6.20;;
56319;SDS011;42226;42.382;23.748;2024-03-22T09:47:00;7.10;;;6.60;;
56319;SDS011;42226;42.382;23.748;2024-03-22T09:49:27;6.50;;;6.00;;
56319;SDS011;42226;42.382;23.748;2024-03-22T09:51:53;6.38;;;5.88;;
56319;SDS011;42226;42.382;23.748;2024-03-22T09:57:11;6.55;;;6.03;;
56319;SDS011;42226;42.382;23.748;2024-03-22T10:00:29;6.63;;;6.13;;
56319;SDS011;42226;42.382;23.748;2024-03-22T10:02:56;6.82;;;6.22;;
56319;SDS011;42226;42.382;23.748;2024-03-22T10:08:35;6.40;;;5.88;;
56319;SDS011;42226;42.382;23.748;2024-03-22T10:15:17;6.00;;;5.55;;
56319;SDS011;42226;42.382;23.748;2024-03-22T10:17:51;5.97;;;5.57;;
56319;SDS011;42226;42.382;23.748;2024-03-22T10:20:22;6.10;;;5.60;;
56319;SDS011;42226;42.382;23.748;2024-03-22T10:22:58;5.80;;;5.40;;
56319;SDS011;42226;42.382;23.748;2024-03-22T10:25:32;6.10;;;5.60;;
56319;SDS011;42226;42.382;23.748;2024-03-22T10:27:59;6.18;;;5.60;;
56319;SDS011;42226;42.382;23.748;2024-03-22T10:30:27;5.80;;;5.40;;
56319;SDS011;42226;42.382;23.748;2024-03-22T10:32:56;5.88;;;5.47;;
56319;SDS011;42226;42.382;23.748;2024-03-22T10:38:22;5.70;;;5.40;;
56319;SDS011;42226;42.382;23.748;2024-03-22T10:40:50;5.65;;;5.25;;
56319;SDS011;42226;42.382;23.748;2024-03-22T10:43:18;5.90;;;5.50;;
56319;SDS011;42226;42.382;23.748;2024-03-22T10:45:47;5.25;;;4.95;;
56319;SDS011;42226;42.382;23.748;2024-03-22T10:48:17;5.97;;;5.57;;
56319;SDS011;42226;42.382;23.748;2024-03-22T10:50:47;6.05;;;5.65;;
56319;SDS011;42226;42.382;23.748;2024-03-22T10:53:21;5.90;;;5.50;;
56319;SDS011;42226;42.382;23.748;2024-03-22T10:55:51;6.25;;;5.85;;
56319;SDS011;42226;42.382;23.748;2024-03-22T10:58:24;5.97;;;5.57;;
56319;SDS011;42226;42.382;23.748;2024-03-22T11:00:51;6.40;;;5.90;;
56319;SDS011;42226;42.382;23.748;2024-03-22T11:04:04;5.97;;;5.57;;
56319;SDS011;42226;42.382;23.748;2024-03-22T11:06:38;5.90;;;5.50;;
56319;SDS011;42226;42.382;23.748;2024-03-22T11:09:05;5.43;;;5.03;;
56319;SDS011;42226;42.382;23.748;2024-03-22T11:14:39;5.50;;;5.20;;
56319;SDS011;42226;42.382;23.748;2024-03-22T11:17:05;5.47;;;4.97;;
56319;SDS011;42226;42.382;23.748;2024-03-22T11:19:33;5.53;;;5.13;;
56319;SDS011;42226;42.382;23.748;2024-03-22T11:22:00;5.60;;;5.15;;
56319;SDS011;42226;42.382;23.748;2024-03-22T11:24:30;5.30;;;4.90;;
56319;SDS011;42226;42.382;23.748;2024-03-22T11:26:57;5.20;;;4.85;;
56319;SDS011;42226;42.382;23.748;2024-03-22T11:29:24;5.50;;;5.10;;
56319;SDS011;42226;42.382;23.748;2024-03-22T11:31:52;5.30;;;5.00;;
56319;SDS011;42226;42.382;23.748;2024-03-22T11:34:19;5.65;;;5.25;;
56319;SDS011;42226;42.382;23.748;2024-03-22T11:36:48;6.00;;;5.50;;
56319;SDS011;42226;42.382;23.748;2024-03-22T11:39:15;5.95;;;5.45;;
56319;SDS011;42226;42.382;23.748;2024-03-22T11:41:44;5.78;;;5.35;;
56319;SDS011;42226;42.382;23.748;2024-03-22T11:44:14;5.60;;;5.20;;
56319;SDS011;42226;42.382;23.748;2024-03-22T11:49:55;5.25;;;4.85;;
56319;SDS011;42226;42.382;23.748;2024-03-22T11:52:25;5.88;;;5.47;;
56319;SDS011;42226;42.382;23.748;2024-03-22T11:55:10;5.88;;;5.30;;
56319;SDS011;42226;42.382;23.748;2024-03-22T11:57:37;5.90;;;5.50;;
56319;SDS011;42226;42.382;23.748;2024-03-22T12:00:11;6.15;;;5.65;;
56319;SDS011;42226;42.382;23.748;2024-03-22T12:02:46;5.63;;;5.25;;
56319;SDS011;42226;42.382;23.748;2024-03-22T12:05:57;5.50;;;5.10;;
56319;SDS011;42226;42.382;23.748;2024-03-22T12:08:26;5.87;;;5.47;;
56319;SDS011;42226;42.382;23.748;2024-03-22T12:10:53;5.68;;;5.30;;
56319;SDS011;42226;42.382;23.748;2024-03-22T12:13:22;6.13;;;5.65;;
56319;SDS011;42226;42.382;23.748;2024-03-22T12:15:49;6.05;;;5.65;;
56319;SDS011;42226;42.382;23.748;2024-03-22T12:18:17;5.80;;;5.30;;
56319;SDS011;42226;42.382;23.748;2024-03-22T12:20:46;5.97;;;5.57;;
56319;SDS011;42226;42.382;23.748;2024-03-22T12:23:14;6.22;;;5.70;;
56319;SDS011;42226;42.382;23.748;2024-03-22T12:25:49;5.93;;;5.53;;
56319;SDS011;42226;42.382;23.748;2024-03-22T12:28:20;6.07;;;5.68;;
56319;SDS011;42226;42.382;23.748;2024-03-22T12:30:49;5.30;;;5.00;;
56319;SDS011;42226;42.382;23.748;2024-03-22T12:33:17;5.95;;;5.30;;
56319;SDS011;42226;42.382;23.748;2024-03-22T12:35:57;5.82;;;5.43;;
56319;SDS011;42226;42.382;23.748;2024-03-22T12:38:23;5.95;;;5.45;;
56319;SDS011;42226;42.382;23.748;2024-03-22T12:40:52;5.82;;;5.43;;
56319;SDS011;42226;42.382;23.748;2024-03-22T12:43:26;5.82;;;5.38;;
56319;SDS011;42226;42.382;23.748;2024-03-22T12:45:54;5.88;;;5.40;;
56319;SDS011;42226;42.382;23.748;2024-03-22T12:48:28;5.30;;;5.00;;
56319;SDS011;42226;42.382;23.748;2024-03-22T12:50:55;5.82;;;5.40;;
56319;SDS011;42226;42.382;23.748;2024-03-22T12:53:21;5.57;;;5.20;;
56319;SDS011;42226;42.382;23.748;2024-03-22T12:59:12;5.60;;;5.10;;
56319;SDS011;42226;42.382;23.748;2024-03-22T13:01:38;5.85;;;5.45;;
56319;SDS011;42226;42.382;23.748;2024-03-22T13:04:06;5.50;;;5.10;;
56319;SDS011;42226;42.382;23.748;2024-03-22T13:09:31;7.03;;;6.53;;
56319;SDS011;42226;42.382;23.748;2024-03-22T13:11:57;5.50;;;5.20;;
56319;SDS011;42226;42.382;23.748;2024-03-22T13:14:25;5.50;;;5.00;;
56319;SDS011;42226;42.382;23.748;2024-03-22T13:16:54;5.68;;;5.30;;
56319;SDS011;42226;42.382;23.748;2024-03-22T13:19:21;5.70;;;5.30;;
56319;SDS011;42226;42.382;23.748;2024-03-22T13:21:48;5.20;;;4.80;;
56319;SDS011;42226;42.382;23.748;2024-03-22T13:24:15;4.90;;;4.60;;
56319;SDS011;42226;42.382;23.748;2024-03-22T13:26:42;5.78;;;5.28;;
56319;SDS011;42226;42.382;23.748;2024-03-22T13:29:10;5.50;;;5.10;;
56319;SDS011;42226;42.382;23.748;2024-03-22T13:34:56;5.35;;;4.95;;
56319;SDS011;42226;42.382;23.748;2024-03-22T13:37:24;5.40;;;5.00;;
56319;SDS011;42226;42.382;23.748;2024-03-22T13:39:51;5.10;;;4.80;;
56319;SDS011;42226;42.382;23.748;2024-03-22T13:44:47;5.28;;;4.90;;
56319;SDS011;42226;42.382;23.748;2024-03-22T13:47:14;5.05;;;4.65;;
56319;SDS011;42226;42.382;23.748;2024-03-22T13:49:41;4.85;;;4.55;;
56319;SDS011;42226;42.382;23.748;2024-03-22T13:52:09;4.78;;;4.47;;
56319;SDS011;42226;42.382;23.748;2024-03-22T13:54:36;5.20;;;4.75;;
56319;SDS011;42226;42.382;23.748;2024-03-22T13:57:02;4.93;;;4.63;;
56319;SDS011;42226;42.382;23.748;2024-03-22T14:02:32;5.20;;;4.88;;
56319;SDS011;42226;42.382;23.748;2024-03-22T14:04:59;6.13;;;5.63;;
56319;SDS011;42226;42.382;23.748;2024-03-22T14:08:03;7.32;;;6.63;;
56319;SDS011;42226;42.382;23.748;2024-03-22T14:13:58;5.15;;;4.80;;
56319;SDS011;42226;42.382;23.748;2024-03-22T14:16:25;5.18;;;4.88;;
56319;SDS011;42226;42.382;23.748;2024-03-22T14:18:53;5.88;;;5.40;;
56319;SDS011;42226;42.382;23.748;2024-03-22T14:21:20;5.75;;;5.35;;
56319;SDS011;42226;42.382;23.748;2024-03-22T14:23:51;6.43;;;5.85;;
56319;SDS011;42226;42.382;23.748;2024-03-22T14:26:18;6.25;;;5.75;;
56319;SDS011;42226;42.382;23.748;2024-03-22T14:28:45;5.60;;;5.20;;
56319;SDS011;42226;42.382;23.748;2024-03-22T14:31:13;5.57;;;5.07;;
56319;SDS011;42226;42.382;23.748;2024-03-22T14:33:49;5.43;;;5.07;;
56319;SDS011;42226;42.382;23.748;2024-03-22T14:41:47;5.33;;;5.00;;
56319;SDS011;42226;42.382;23.748;2024-03-22T14:44:14;5.65;;;5.25;;
56319;SDS011;42226;42.382;23.748;2024-03-22T14:46:59;5.43;;;5.03;;
56319;SDS011;42226;42.382;23.748;2024-03-22T14:49:32;5.60;;;5.10;;
56319;SDS011;42226;42.382;23.748;2024-03-22T14:52:00;5.88;;;5.45;;
56319;SDS011;42226;42.382;23.748;2024-03-22T15:01:19;5.63;;;5.13;;
56319;SDS011;42226;42.382;23.748;2024-03-22T15:03:47;5.88;;;5.47;;
56319;SDS011;42226;42.382;23.748;2024-03-22T15:06:15;5.78;;;5.38;;
56319;SDS011;42226;42.382;23.748;2024-03-22T15:08:55;6.07;;;5.68;;
56319;SDS011;42226;42.382;23.748;2024-03-22T15:11:24;5.75;;;5.35;;
56319;SDS011;42226;42.382;23.748;2024-03-22T15:16:41;5.93;;;5.53;;
56319;SDS011;42226;42.382;23.748;2024-03-22T15:19:10;5.70;;;5.30;;
56319;SDS011;42226;42.382;23.748;2024-03-22T15:21:37;7.28;;;6.78;;
56319;SDS011;42226;42.382;23.748;2024-03-22T15:24:04;5.78;;;5.38;;
56319;SDS011;42226;42.382;23.748;2024-03-22T15:26:32;6.88;;;5.45;;
56319;SDS011;42226;42.382;23.748;2024-03-22T15:28:58;5.70;;;5.30;;
56319;SDS011;42226;42.382;23.748;2024-03-22T15:31:25;5.55;;;5.15;;
56319;SDS011;42226;42.382;23.748;2024-03-22T15:36:53;5.72;;;5.32;;
56319;SDS011;42226;42.382;23.748;2024-03-22T15:39:20;6.13;;;5.63;;
56319;SDS011;42226;42.382;23.748;2024-03-22T15:41:47;6.07;;;5.57;;
56319;SDS011;42226;42.382;23.748;2024-03-22T15:44:14;6.28;;;5.80;;
56319;SDS011;42226;42.382;23.748;2024-03-22T15:46:42;5.95;;;5.45;;
56319;SDS011;42226;42.382;23.748;2024-03-22T15:49:08;6.00;;;5.60;;
56319;SDS011;42226;42.382;23.748;2024-03-22T15:51:36;5.65;;;5.25;;
56319;SDS011;42226;42.382;23.748;2024-03-22T15:54:07;6.18;;;5.75;;
56319;SDS011;42226;42.382;23.748;2024-03-22T15:56:34;6.32;;;5.82;;
56319;SDS011;42226;42.382;23.748;2024-03-22T15:59:02;5.95;;;5.45;;
56319;SDS011;42226;42.382;23.748;2024-03-22T16:01:30;6.45;;;5.60;;
56319;SDS011;42226;42.382;23.748;2024-03-22T16:03:58;6.15;;;5.72;;
56319;SDS011;42226;42.382;23.748;2024-03-22T16:06:24;6.03;;;5.63;;
56319;SDS011;42226;42.382;23.748;2024-03-22T16:11:32;5.97;;;5.57;;
56319;SDS011;42226;42.382;23.748;2024-03-22T16:16:27;8.80;;;6.00;;